Time;durP1;ratioP1;P1;durP2;ratioP2;P2;SDS_P1;SDS_P2;PMS_P1;PMS_P2;Temp;Humidity;BMP_temperature;BMP_pressure;BME280_temperature;BME280_humidity;BME280_pressure;Samples;Min_cycle;Max_cycle;Signal;HPM_P1;HPM_P2
2023/09/05 00:00:01;;;;;;;5.83;2.33;;;15.80;99.90;;;;;;5035964;28;20287;-84
2023/09/05 00:02:26;;;;;;;4.03;2.27;;;15.80;99.90;;;;;;5036262;28;20711;-83
2023/09/05 00:04:56;;;;;;;4.17;2.30;;;15.70;99.90;;;;;;5035858;28;20602;-83
2023/09/05 00:07:21;;;;;;;4.83;2.50;;;15.80;99.90;;;;;;5036434;28;20204;-83
2023/09/05 00:09:47;;;;;;;4.40;2.40;;;15.80;99.90;;;;;;5035481;28;20204;-83
2023/09/05 00:12:12;;;;;;;8.27;2.50;;;15.80;99.90;;;;;;5034759;28;20200;-83
2023/09/05 00:14:38;;;;;;;3.87;2.13;;;15.80;99.90;;;;;;5035837;28;20628;-83
2023/09/05 00:17:04;;;;;;;4.67;2.37;;;15.80;99.90;;;;;;5035245;28;20551;-83
2023/09/05 00:19:29;;;;;;;6.43;2.40;;;15.80;99.90;;;;;;5035569;28;20273;-83
2023/09/05 00:21:55;;;;;;;6.27;2.40;;;15.80;99.90;;;;;;5035484;28;20196;-83
2023/09/05 00:24:33;;;;;;;3.13;1.93;;;15.80;99.90;;;;;;5035444;28;20176;-83
2023/09/05 00:27:00;;;;;;;2.33;2.10;;;15.90;99.90;;;;;;5036668;28;20187;-83
2023/09/05 00:29:27;;;;;;;5.77;2.23;;;15.80;99.90;;;;;;5036497;28;20192;-83
2023/09/05 00:31:54;;;;;;;4.47;2.30;;;15.70;99.90;;;;;;5036259;28;20220;-83
2023/09/05 00:34:20;;;;;;;3.03;2.10;;;15.80;99.90;;;;;;5036159;28;20172;-83
2023/09/05 00:36:48;;;;;;;4.63;1.90;;;15.80;99.90;;;;;;5037465;28;20222;-83
2023/09/05 00:39:14;;;;;;;4.77;2.60;;;15.90;99.90;;;;;;5036370;28;20656;-83
2023/09/05 00:41:40;;;;;;;9.00;2.30;;;15.90;99.90;;;;;;5037837;28;20202;-83
2023/09/05 00:44:06;;;;;;;7.07;2.30;;;16.00;99.90;;;;;;5036344;28;20210;-83
2023/09/05 00:46:32;;;;;;;4.33;2.50;;;16.00;99.90;;;;;;5038602;28;20238;-82
2023/09/05 00:49:02;;;;;;;6.30;2.67;;;16.00;99.90;;;;;;5038663;28;20180;-84
2023/09/05 00:51:32;;;;;;;8.90;2.30;;;16.00;99.90;;;;;;5038734;28;20254;-83
2023/09/05 00:54:02;;;;;;;8.87;2.67;;;16.00;99.90;;;;;;5042692;28;20168;-84
2023/09/05 00:56:28;;;;;;;9.37;2.03;;;16.10;99.90;;;;;;5042179;28;20231;-82
2023/09/05 00:58:54;;;;;;;5.17;2.03;;;16.00;99.90;;;;;;5041032;28;20643;-83
2023/09/05 01:01:20;;;;;;;7.20;2.50;;;16.00;99.90;;;;;;5041502;28;20234;-83
2023/09/05 01:03:45;;;;;;;5.20;2.50;;;16.00;99.90;;;;;;5039710;28;20176;-83
2023/09/05 01:06:19;;;;;;;3.83;2.27;;;16.00;99.90;;;;;;5040529;28;20230;-83
2023/09/05 01:08:57;;;;;;;3.57;2.40;;;16.00;99.90;;;;;;5039307;28;20259;-83
2023/09/05 01:11:24;;;;;;;5.07;2.57;;;16.00;99.90;;;;;;5038612;28;20193;-83
2023/09/05 01:13:50;;;;;;;5.33;2.00;;;16.00;99.90;;;;;;5039698;28;20180;-83
2023/09/05 01:16:15;;;;;;;3.93;2.23;;;16.00;99.90;;;;;;5042161;28;20602;-83
2023/09/05 01:18:41;;;;;;;4.97;2.30;;;16.10;99.90;;;;;;5042284;28;20648;-83
2023/09/05 01:21:35;;;;;;;2.50;2.27;;;16.00;99.90;;;;;;5039238;28;20204;-84
2023/09/05 01:24:19;;;;;;;2.87;2.17;;;15.90;99.90;;;;;;5039778;28;20172;-83
2023/09/05 01:26:45;;;;;;;2.33;2.10;;;15.90;99.90;;;;;;5041219;28;20678;-84
2023/09/05 01:29:15;;;;;;;3.23;1.70;;;15.90;99.90;;;;;;5039202;28;20267;-84
2023/09/05 01:31:42;;;;;;;4.33;2.20;;;15.90;99.90;;;;;;5039232;28;20203;-83
2023/09/05 01:34:07;;;;;;;2.50;1.93;;;15.90;99.90;;;;;;5038983;28;20631;-83
2023/09/05 01:36:33;;;;;;;5.53;2.10;;;15.90;99.90;;;;;;5038632;28;20195;-83
2023/09/05 01:38:59;;;;;;;3.00;2.00;;;15.90;99.90;;;;;;5038158;28;20195;-83
2023/09/05 01:41:24;;;;;;;4.87;2.30;;;15.90;99.90;;;;;;5037332;28;20316;-83
2023/09/05 01:43:50;;;;;;;2.97;2.10;;;15.90;99.90;;;;;;5038057;28;20711;-83
2023/09/05 01:46:15;;;;;;;7.87;2.23;;;15.80;99.90;;;;;;5038612;28;20633;-83
2023/09/05 01:48:41;;;;;;;3.97;2.10;;;15.80;99.90;;;;;;5038230;28;20199;-83
2023/09/05 01:51:07;;;;;;;6.50;2.07;;;15.80;99.90;;;;;;5039639;28;20667;-83
2023/09/05 01:53:32;;;;;;;3.60;1.90;;;15.80;99.90;;;;;;5038423;28;20189;-83
2023/09/05 01:55:58;;;;;;;4.27;2.37;;;15.80;99.90;;;;;;5039182;28;20164;-83
2023/09/05 01:58:24;;;;;;;3.17;1.90;;;15.80;99.90;;;;;;5038277;28;20191;-83
2023/09/05 02:00:50;;;;;;;8.30;2.10;;;15.80;99.90;;;;;;5038569;28;20181;-84
2023/09/05 02:03:15;;;;;;;4.07;2.07;;;15.80;99.90;;;;;;5037475;28;20636;-83
2023/09/05 02:05:41;;;;;;;4.73;1.70;;;15.80;99.90;;;;;;5036923;28;20180;-83
2023/09/05 02:08:06;;;;;;;5.20;2.03;;;15.70;99.90;;;;;;5038204;28;20185;-83
2023/09/05 02:10:32;;;;;;;3.20;2.20;;;15.70;99.90;;;;;;5040103;28;20622;-83
2023/09/05 02:12:57;;;;;;;5.33;1.80;;;15.70;99.90;;;;;;5036889;28;20200;-83
2023/09/05 02:15:23;;;;;;;3.77;2.17;;;15.80;99.90;;;;;;5038734;28;20172;-83
2023/09/05 02:17:49;;;;;;;3.87;2.83;;;15.90;99.90;;;;;;5038298;28;20180;-83
2023/09/05 02:20:14;;;;;;;2.80;1.87;;;15.90;99.90;;;;;;5037731;28;20184;-84
2023/09/05 02:22:46;;;;;;;3.00;1.80;;;15.90;99.90;;;;;;5038381;28;20196;-83
2023/09/05 02:25:12;;;;;;;6.50;1.97;;;16.00;99.90;;;;;;5038329;28;20218;-83
2023/09/05 02:27:38;;;;;;;1.80;1.50;;;16.00;99.90;;;;;;5040402;28;20188;-83
2023/09/05 02:30:06;;;;;;;3.90;1.70;;;16.10;99.90;;;;;;5038610;28;20223;-83
2023/09/05 02:32:32;;;;;;;2.17;1.50;;;16.10;99.90;;;;;;5037190;28;20702;-83
2023/09/05 02:34:58;;;;;;;2.73;1.80;;;16.10;99.90;;;;;;5037006;28;20220;-83
2023/09/05 02:37:24;;;;;;;3.53;1.90;;;16.30;54.50;;;;;;5038072;28;20200;-83
2023/09/05 02:39:49;;;;;;;5.67;1.90;;;16.40;4.10;;;;;;5039174;28;20188;-83
2023/09/05 02:42:15;;;;;;;3.27;1.90;;;16.20;1.00;;;;;;5037720;28;20204;-83
2023/09/05 02:44:40;;;;;;;4.43;2.23;;;16.30;1.00;;;;;;5037855;28;20184;-83
2023/09/05 02:47:06;;;;;;;6.90;1.83;;;16.40;1.00;;;;;;5037083;28;20568;-83
2023/09/05 02:49:31;;;;;;;1.90;1.70;;;16.40;11.30;;;;;;5037186;28;20180;-83
2023/09/05 02:51:58;;;;;;;3.87;1.90;;;16.40;56.50;;;;;;5037116;28;20206;-83
2023/09/05 02:54:23;;;;;;;3.30;1.80;;;16.30;53.50;;;;;;5036260;28;20172;-83
2023/09/05 02:56:50;;;;;;;4.23;1.80;;;16.30;93.00;;;;;;5038044;28;20179;-83
2023/09/05 02:59:15;;;;;;;3.93;1.90;;;16.30;99.90;;;;;;5035757;28;20184;-83
2023/09/05 03:01:41;;;;;;;2.53;1.60;;;16.50;99.90;;;;;;5036047;28;20192;-83
2023/09/05 03:04:06;;;;;;;3.63;2.10;;;16.30;99.90;;;;;;5035113;28;20595;-83
2023/09/05 03:06:32;;;;;;;1.80;1.67;;;16.20;99.90;;;;;;5035431;28;20597;-83
2023/09/05 03:08:57;;;;;;;5.83;1.90;;;16.20;99.90;;;;;;5036078;28;20180;-83
2023/09/05 03:11:23;;;;;;;6.77;2.10;;;16.20;99.90;;;;;;5035220;28;20238;-83
2023/09/05 03:13:50;;;;;;;5.10;1.80;;;16.20;99.90;;;;;;5035626;28;20183;-84
2023/09/05 03:16:16;;;;;;;7.67;2.03;;;16.10;99.90;;;;;;5036607;28;20169;-83
2023/09/05 03:18:42;;;;;;;5.60;2.03;;;16.30;99.90;;;;;;5036753;28;20249;-83
2023/09/05 03:21:07;;;;;;;5.57;1.83;;;16.30;99.90;;;;;;5036379;28;20637;-83
2023/09/05 03:23:34;;;;;;;4.57;1.90;;;16.20;99.90;;;;;;5035771;28;20275;-83
2023/09/05 03:26:00;;;;;;;4.33;1.87;;;16.00;99.90;;;;;;5035001;28;20191;-83
2023/09/05 03:28:44;;;;;;;2.13;1.80;;;16.00;99.90;;;;;;5035158;28;20180;-83
2023/09/05 03:31:10;;;;;;;3.80;1.90;;;15.90;99.90;;;;;;5034408;28;20211;-83
2023/09/05 03:33:36;;;;;;;3.07;2.30;;;15.90;99.90;;;;;;5034891;28;20180;-83
2023/09/05 03:36:01;;;;;;;3.80;1.73;;;15.90;99.90;;;;;;5036563;28;20641;-83
2023/09/05 03:38:27;;;;;;;4.70;1.87;;;15.80;99.90;;;;;;5035115;28;20215;-83
2023/09/05 03:40:56;;;;;;;6.03;2.27;;;15.90;99.90;;;;;;5034902;28;20203;-83
2023/09/05 03:43:21;;;;;;;5.30;2.00;;;15.90;99.90;;;;;;5036220;28;20196;-83
2023/09/05 03:45:48;;;;;;;6.70;2.40;;;15.80;99.90;;;;;;5034642;28;20199;-83
2023/09/05 03:48:13;;;;;;;4.57;2.33;;;15.80;99.90;;;;;;5034723;28;20275;-83
2023/09/05 03:50:39;;;;;;;5.37;2.00;;;15.90;99.90;;;;;;5037058;28;20223;-83
2023/09/05 03:53:05;;;;;;;5.30;2.10;;;15.70;99.90;;;;;;5035282;28;20197;-83
2023/09/05 03:55:34;;;;;;;4.73;2.20;;;15.70;99.90;;;;;;5035154;28;20264;-83
2023/09/05 03:58:04;;;;;;;5.17;2.07;;;15.60;99.90;;;;;;5034747;28;20198;-83
2023/09/05 04:00:32;;;;;;;4.77;2.23;;;15.60;99.90;;;;;;5034813;28;20176;-83
2023/09/05 04:02:58;;;;;;;7.83;1.90;;;15.60;99.90;;;;;;5034685;28;20235;-83
2023/09/05 04:05:24;;;;;;;2.63;2.10;;;15.50;99.90;;;;;;5034918;28;20183;-83
2023/09/05 04:07:49;;;;;;;3.07;2.00;;;15.60;99.90;;;;;;5036506;28;20183;-83
2023/09/05 04:10:15;;;;;;;6.07;2.20;;;15.50;99.90;;;;;;5037009;28;20560;-83
2023/09/05 04:12:41;;;;;;;6.43;2.23;;;15.50;99.90;;;;;;5033948;28;20231;-84
2023/09/05 04:15:06;;;;;;;5.60;1.90;;;15.50;99.90;;;;;;5034386;28;20279;-83
2023/09/05 04:17:33;;;;;;;3.97;2.30;;;15.50;99.90;;;;;;5037539;28;20171;-83
2023/09/05 04:19:58;;;;;;;2.50;1.93;;;15.40;99.90;;;;;;5037149;28;20258;-84
2023/09/05 04:22:27;;;;;;;5.30;2.17;;;15.40;99.90;;;;;;5035964;28;20680;-84
2023/09/05 04:24:54;;;;;;;5.60;2.20;;;15.30;99.90;;;;;;5037157;28;20226;-83
2023/09/05 04:27:21;;;;;;;3.53;2.03;;;15.30;99.90;;;;;;5038125;28;20643;-84
2023/09/05 04:29:50;;;;;;;5.20;2.47;;;15.20;99.90;;;;;;5036236;28;20297;-83
2023/09/05 04:32:17;;;;;;;6.33;2.37;;;15.30;99.90;;;;;;5038138;28;20207;-84
2023/09/05 04:34:43;;;;;;;5.53;2.30;;;15.30;99.90;;;;;;5037865;28;20200;-84
2023/09/05 04:37:08;;;;;;;5.83;2.40;;;15.20;99.90;;;;;;5041347;28;20181;-84
2023/09/05 04:39:34;;;;;;;8.53;2.13;;;15.20;99.90;;;;;;5042102;28;20173;-83
2023/09/05 04:41:59;;;;;;;4.63;2.50;;;15.20;99.90;;;;;;5043240;28;20184;-84
2023/09/05 04:44:27;;;;;;;5.90;2.20;;;15.20;99.90;;;;;;5044329;28;20176;-83
2023/09/05 04:47:12;;;;;;;3.43;2.30;;;15.30;99.90;;;;;;5042798;28;20560;-83
2023/09/05 04:49:38;;;;;;;5.37;2.20;;;15.10;99.90;;;;;;5042030;28;20245;-84
2023/09/05 04:52:04;;;;;;;4.03;2.30;;;15.10;99.90;;;;;;5040047;28;20219;-84
2023/09/05 04:54:29;;;;;;;4.83;2.47;;;15.10;99.90;;;;;;5037290;28;20192;-84
2023/09/05 04:56:56;;;;;;;4.83;2.10;;;15.10;99.90;;;;;;5037614;28;20176;-83
2023/09/05 04:59:21;;;;;;;6.37;2.70;;;15.10;99.90;;;;;;5039373;28;20179;-83
2023/09/05 05:01:47;;;;;;;3.10;2.20;;;15.70;99.90;;;;;;5037463;28;20199;-83
2023/09/05 05:04:12;;;;;;;3.07;2.40;;;15.40;99.90;;;;;;5036756;28;20663;-82
2023/09/05 05:06:38;;;;;;;5.83;2.20;;;14.90;99.90;;;;;;5036915;28;20643;-83
2023/09/05 05:09:03;;;;;;;2.30;2.10;;;15.00;99.90;;;;;;5036650;28;20180;-84
2023/09/05 05:11:29;;;;;;;4.97;2.27;;;14.90;99.90;;;;;;5033960;28;20216;-84
2023/09/05 05:13:54;;;;;;;10.10;3.00;;;15.00;99.90;;;;;;5034556;28;20172;-84
2023/09/05 05:16:20;;;;;;;4.40;2.43;;;14.90;99.90;;;;;;5034935;28;20184;-84
2023/09/05 05:18:45;;;;;;;4.73;2.53;;;14.90;99.90;;;;;;5034823;28;20177;-84
2023/09/05 05:21:11;;;;;;;5.20;2.30;;;14.90;99.90;;;;;;5034595;28;20180;-84
2023/09/05 05:23:37;;;;;;;4.27;2.40;;;14.90;99.90;;;;;;5036428;28;20199;-84
2023/09/05 05:26:02;;;;;;;5.43;2.10;;;15.40;99.90;;;;;;5034880;28;20216;-84
2023/09/05 05:28:28;;;;;;;5.37;2.67;;;14.90;99.90;;;;;;5035717;28;20181;-84
2023/09/05 05:30:53;;;;;;;6.70;2.47;;;14.90;99.90;;;;;;5034638;28;20700;-84
2023/09/05 05:33:19;;;;;;;4.90;2.53;;;15.10;99.90;;;;;;5034425;28;20254;-84
2023/09/05 05:35:51;;;;;;;4.47;2.70;;;14.90;99.90;;;;;;5035863;28;20181;-85
2023/09/05 05:38:17;;;;;;;3.97;2.50;;;14.90;99.90;;;;;;5038241;28;20342;-84
2023/09/05 05:40:42;;;;;;;3.93;2.30;;;15.10;99.90;;;;;;5038025;28;20259;-84
2023/09/05 05:43:08;;;;;;;3.13;2.00;;;14.80;99.90;;;;;;5037586;28;20216;-84
2023/09/05 05:45:33;;;;;;;5.70;2.50;;;14.90;99.90;;;;;;5038468;28;20549;-84
2023/09/05 05:47:59;;;;;;;5.80;2.77;;;14.80;99.90;;;;;;5039038;28;20204;-83
2023/09/05 05:50:24;;;;;;;5.60;2.43;;;14.80;99.90;;;;;;5037464;28;20291;-84
2023/09/05 05:52:50;;;;;;;7.93;2.90;;;14.80;99.90;;;;;;5038454;28;20196;-84
2023/09/05 05:55:16;;;;;;;6.90;2.73;;;14.70;99.90;;;;;;5037219;28;20181;-84
2023/09/05 05:57:42;;;;;;;13.67;3.30;;;14.80;99.90;;;;;;5037404;28;20215;-84
2023/09/05 06:00:08;;;;;;;8.37;3.10;;;14.90;99.90;;;;;;5037175;28;20374;-84
2023/09/05 06:02:33;;;;;;;13.23;2.87;;;14.90;99.90;;;;;;5038525;28;20238;-83
2023/09/05 06:04:59;;;;;;;7.40;2.70;;;14.90;99.90;;;;;;5037156;28;20183;-84
2023/09/05 06:07:25;;;;;;;4.80;2.37;;;14.90;99.90;;;;;;5038976;28;20175;-84
2023/09/05 06:09:50;;;;;;;8.37;2.70;;;14.90;99.90;;;;;;5037299;28;20287;-84
2023/09/05 06:12:16;;;;;;;6.80;2.67;;;14.90;99.90;;;;;;5037103;28;20207;-84
2023/09/05 06:14:42;;;;;;;3.60;1.97;;;14.90;99.90;;;;;;5036910;28;20548;-84
2023/09/05 06:17:07;;;;;;;3.50;2.40;;;15.10;99.90;;;;;;5040780;28;20199;-83
2023/09/05 06:19:33;;;;;;;5.47;3.07;;;14.90;99.90;;;;;;5039394;28;20250;-84
2023/09/05 06:21:58;;;;;;;4.87;2.40;;;15.30;99.90;;;;;;5038380;28;20260;-84
2023/09/05 06:24:25;;;;;;;7.20;2.53;;;15.00;99.90;;;;;;5037465;28;20256;-83
2023/09/05 06:26:50;;;;;;;3.87;2.43;;;15.00;99.90;;;;;;5037353;28;20180;-83
2023/09/05 06:29:16;;;;;;;3.83;2.70;;;15.00;99.90;;;;;;5037306;28;20556;-84
2023/09/05 06:31:42;;;;;;;3.10;2.33;;;15.00;99.90;;;;;;5037975;28;20212;-84
2023/09/05 06:34:07;;;;;;;5.70;2.80;;;15.10;99.90;;;;;;5037261;28;20169;-83
2023/09/05 06:36:33;;;;;;;5.17;2.57;;;15.10;99.90;;;;;;5037799;28;20168;-84
2023/09/05 06:38:58;;;;;;;4.07;2.50;;;15.20;99.90;;;;;;5037638;28;20179;-83
2023/09/05 06:41:24;;;;;;;6.17;3.30;;;15.30;99.90;;;;;;5037154;28;20172;-84
2023/09/05 06:43:50;;;;;;;7.17;2.83;;;15.40;99.90;;;;;;5039216;28;20180;-82
2023/09/05 06:46:15;;;;;;;2.30;2.10;;;15.40;99.90;;;;;;5037888;28;20169;-84
2023/09/05 06:48:41;;;;;;;2.97;2.10;;;15.60;99.90;;;;;;5039492;28;20228;-84
2023/09/05 06:51:06;;;;;;;4.27;2.70;;;15.70;99.90;;;;;;5037954;28;20685;-83
2023/09/05 06:53:33;;;;;;;8.50;2.00;;;16.10;99.90;;;;;;5037332;28;20189;-84
2023/09/05 06:55:58;;;;;;;6.03;2.30;;;16.00;99.90;;;;;;5039905;28;20548;-84
2023/09/05 06:58:25;;;;;;;6.20;2.30;;;16.10;99.90;;;;;;5039620;28;20173;-84
2023/09/05 07:00:55;;;;;;;4.10;2.20;;;16.20;99.90;;;;;;5045024;28;20243;-83
2023/09/05 07:03:25;;;;;;;4.53;2.20;;;16.40;99.90;;;;;;5045144;28;20722;-84
2023/09/05 07:05:52;;;;;;;2.67;1.90;;;16.40;99.90;;;;;;5039223;28;20238;-83
2023/09/05 07:08:18;;;;;;;6.67;2.27;;;16.60;99.90;;;;;;5043680;28;20206;-84
2023/09/05 07:10:43;;;;;;;3.20;2.30;;;16.70;99.90;;;;;;5044593;28;20223;-85
2023/09/05 07:13:09;;;;;;;3.43;1.97;;;16.80;99.90;;;;;;5036448;28;20223;-84
2023/09/05 07:15:35;;;;;;;4.07;2.10;;;16.80;99.90;;;;;;5036237;28;20636;-84
2023/09/05 07:18:00;;;;;;;2.33;1.90;;;17.10;99.90;;;;;;5036843;28;20180;-84
2023/09/05 07:20:26;;;;;;;3.33;2.00;;;17.30;99.90;;;;;;5036984;28;20179;-84
2023/09/05 07:22:51;;;;;;;3.90;1.70;;;17.30;99.90;;;;;;5035990;28;20219;-83
2023/09/05 07:25:18;;;;;;;4.10;2.03;;;17.40;99.90;;;;;;5037147;28;20187;-85
2023/09/05 07:27:43;;;;;;;3.13;1.90;;;17.20;99.90;;;;;;5035558;28;20225;-83
2023/09/05 07:30:09;;;;;;;4.73;2.00;;;17.50;99.90;;;;;;5036388;28;20204;-84
2023/09/05 07:32:35;;;;;;;5.77;2.00;;;17.60;99.90;;;;;;5035871;28;20602;-84
2023/09/05 07:35:01;;;;;;;4.30;2.10;;;17.70;99.90;;;;;;5035833;28;20183;-84
2023/09/05 07:37:26;;;;;;;3.03;1.70;;;18.00;99.90;;;;;;5037642;28;20168;-84
2023/09/05 07:39:52;;;;;;;4.20;1.90;;;18.60;99.90;;;;;;5036893;28;20693;-84
2023/09/05 07:42:18;;;;;;;5.97;2.10;;;18.00;1.00;;;;;;5035944;28;20691;-84
2023/09/05 07:44:43;;;;;;;2.80;2.10;;;18.20;1.00;;;;;;5035262;28;20180;-84
2023/09/05 07:47:09;;;;;;;2.37;1.70;;;18.60;1.00;;;;;;5035451;28;20184;-84
2023/09/05 07:49:36;;;;;;;6.00;1.93;;;18.30;1.00;;;;;;5036784;28;20255;-83
2023/09/05 07:52:02;;;;;;;5.00;2.00;;;18.40;1.00;;;;;;5036671;28;20271;-84
2023/09/05 07:54:28;;;;;;;2.93;1.63;;;18.60;1.00;;;;;;5034979;28;20202;-83
2023/09/05 07:56:53;;;;;;;3.20;2.17;;;18.50;1.00;;;;;;5037266;28;20176;-81
2023/09/05 07:59:19;;;;;;;2.87;2.10;;;18.80;1.00;;;;;;5037139;28;20271;-84
2023/09/05 08:01:45;;;;;;;2.23;1.93;;;19.00;1.00;;;;;;5036538;28;20196;-83
2023/09/05 08:04:10;;;;;;;6.73;2.17;;;18.90;1.00;;;;;;5035110;28;20172;-84
2023/09/05 08:06:36;;;;;;;2.90;2.17;;;19.00;1.00;;;;;;5035655;28;20181;-83
2023/09/05 08:09:01;;;;;;;1.97;1.70;;;19.30;1.00;;;;;;5035294;28;20180;-84
2023/09/05 08:11:27;;;;;;;2.57;2.00;;;19.10;1.00;;;;;;5035821;28;20208;-84
2023/09/05 08:13:53;;;;;;;2.10;1.83;;;19.20;1.00;;;;;;5034867;28;20271;-83
2023/09/05 08:16:19;;;;;;;3.27;2.20;;;19.40;1.00;;;;;;5036623;28;20171;-83
2023/09/05 08:18:45;;;;;;;3.93;1.87;;;19.50;1.00;;;;;;5036121;28;20586;-84
2023/09/05 08:21:10;;;;;;;4.20;2.20;;;19.50;1.00;;;;;;5035541;28;20318;-84
2023/09/05 08:23:36;;;;;;;3.97;1.97;;;19.60;1.00;;;;;;5035539;28;20183;-84
2023/09/05 08:26:01;;;;;;;3.67;1.90;;;19.70;1.00;;;;;;5035358;28;20262;-84
2023/09/05 08:28:33;;;;;;;5.63;1.97;;;20.00;1.00;;;;;;5035428;28;20180;-84
2023/09/05 08:30:59;;;;;;;2.67;2.07;;;20.00;1.00;;;;;;5034773;28;20215;-83
2023/09/05 08:33:26;;;;;;;4.00;2.17;;;20.00;1.00;;;;;;5035220;28;20202;-83
2023/09/05 08:35:52;;;;;;;2.43;1.90;;;20.10;1.00;;;;;;5036434;28;20251;-84
2023/09/05 08:38:18;;;;;;;6.07;2.00;;;20.20;99.90;;;;;;5035088;28;20176;-83
2023/09/05 08:40:48;;;;;;;4.40;1.83;;;20.30;99.90;;;;;;5035512;28;20723;-84
2023/09/05 08:43:16;;;;;;;3.60;1.90;;;20.30;99.90;;;;;;5035012;28;20219;-84
2023/09/05 08:45:45;;;;;;;4.63;1.93;;;20.50;99.90;;;;;;5036744;28;20592;-83
2023/09/05 08:48:10;;;;;;;2.63;1.70;;;20.50;99.90;;;;;;5036547;28;20164;-83
2023/09/05 08:50:38;;;;;;;3.50;1.87;;;21.00;1.00;;;;;;5034698;28;20200;-83
2023/09/05 08:53:11;;;;;;;4.80;2.30;;;20.90;99.90;;;;;;5036251;28;20678;-83
2023/09/05 08:55:40;;;;;;;1.77;1.60;;;20.60;99.90;;;;;;5034415;28;20179;-83
2023/09/05 08:58:10;;;;;;;1.70;1.50;;;20.70;99.90;;;;;;5035837;28;20234;-84
2023/09/05 09:00:36;;;;;;;2.20;1.60;;;20.80;99.90;;;;;;5034781;28;20226;-84
2023/09/05 09:03:04;;;;;;;2.27;1.73;;;20.80;99.90;;;;;;5034753;28;20200;-84
2023/09/05 09:05:30;;;;;;;4.27;1.67;;;21.00;1.00;;;;;;5036157;28;20176;-83
2023/09/05 09:07:57;;;;;;;4.53;1.87;;;21.20;99.90;;;;;;5035075;28;20207;-83
2023/09/05 09:10:23;;;;;;;1.77;1.60;;;21.30;99.90;;;;;;5035269;28;20253;-83
2023/09/05 09:12:54;;;;;;;3.97;1.90;;;21.30;99.90;;;;;;5038356;28;20196;-83
2023/09/05 09:15:24;;;;;;;3.10;1.40;;;21.40;99.90;;;;;;5040327;28;20241;-84
2023/09/05 09:17:50;;;;;;;3.77;1.57;;;21.50;99.90;;;;;;5040181;28;20179;-84
2023/09/05 09:20:18;;;;;;;1.93;1.40;;;21.50;99.90;;;;;;5048455;28;20179;-84
2023/09/05 09:22:44;;;;;;;1.97;1.73;;;21.60;99.90;;;;;;5041548;28;20211;-83
2023/09/05 09:25:15;;;;;;;9.33;2.13;;;22.10;99.90;;;;;;5039608;28;20555;-84
2023/09/05 09:27:44;;;;;;;1.97;1.70;;;21.80;99.90;;;;;;5038118;28;20177;-84
2023/09/05 09:30:11;;;;;;;2.27;1.50;;;22.10;99.90;;;;;;5039683;28;20577;-84
2023/09/05 09:32:38;;;;;;;1.70;1.60;;;22.00;99.90;;;;;;5037771;28;20216;-84
2023/09/05 09:35:10;;;;;;;1.97;1.40;;;22.20;99.90;;;;;;5037620;28;20175;-83
2023/09/05 09:37:35;;;;;;;3.30;1.80;;;22.10;99.90;;;;;;5037842;28;20165;-84
2023/09/05 09:40:05;;;;;;;2.43;1.60;;;22.40;99.90;;;;;;5037849;28;20183;-84
2023/09/05 09:42:30;;;;;;;4.50;1.50;;;22.30;99.90;;;;;;5038001;28;20196;-83
2023/09/05 09:44:57;;;;;;;1.50;1.40;;;22.50;99.90;;;;;;5038336;28;20183;-84
2023/09/05 09:47:24;;;;;;;5.43;1.60;;;22.40;1.00;;;;;;5039665;28;20176;-84
2023/09/05 09:49:54;;;;;;;2.13;1.50;;;22.50;99.90;;;;;;5038882;28;20238;-83
2023/09/05 09:52:21;;;;;;;10.20;1.40;;;22.70;99.90;;;;;;5038204;28;20212;-82
2023/09/05 09:54:51;;;;;;;6.50;1.43;;;22.50;99.90;;;;;;5037857;28;20184;-84
2023/09/05 09:57:24;;;;;;;1.90;1.27;;;22.70;99.90;;;;;;5038212;28;20172;-84
2023/09/05 09:59:53;;;;;;;2.73;1.40;;;22.70;58.60;;;;;;5037122;28;20180;-83
2023/09/05 10:02:20;;;;;;;2.83;1.33;;;23.00;50.70;;;;;;5037703;28;20192;-84
2023/09/05 10:04:46;;;;;;;4.73;1.40;;;22.90;22.50;;;;;;5037529;28;20200;-84
2023/09/05 10:07:17;;;;;;;1.37;1.20;;;23.00;57.00;;;;;;5037938;28;20574;-84
2023/09/05 10:09:44;;;;;;;2.80;1.50;;;23.00;99.90;;;;;;5037284;28;20727;-83
2023/09/05 10:12:11;;;;;;;2.10;1.27;;;23.10;74.40;;;;;;5036917;28;20199;-83
2023/09/05 10:14:40;;;;;;;3.53;1.50;;;23.30;73.10;;;;;;5038202;28;20173;-84
2023/09/05 10:17:05;;;;;;;1.93;1.33;;;23.20;84.60;;;;;;5037637;28;20176;-84
2023/09/05 10:19:32;;;;;;;2.87;1.37;;;23.30;99.90;;;;;;5036541;28;20180;-84
2023/09/05 10:21:59;;;;;;;3.80;1.20;;;23.50;54.10;;;;;;5036741;28;20208;-84
2023/09/05 10:24:28;;;;;;;1.53;1.30;;;23.70;24.80;;;;;;5036959;28;20715;-84
2023/09/05 10:26:54;;;;;;;7.63;1.53;;;23.70;1.50;;;;;;5037998;28;20230;-82
2023/09/05 10:29:43;;;;;;;2.87;1.20;;;23.60;1.00;;;;;;5036571;28;20249;-84
2023/09/05 10:32:26;;;;;;;1.40;1.20;;;23.80;1.00;;;;;;5036751;28;20200;-83
2023/09/05 10:34:55;;;;;;;2.30;1.10;;;23.80;1.00;;;;;;5036535;28;20176;-84
2023/09/05 10:37:22;;;;;;;2.67;1.20;;;23.90;3.40;;;;;;5037428;28;20184;-83
2023/09/05 10:39:49;;;;;;;1.20;1.10;;;23.90;41.00;;;;;;5036583;28;20176;-83
2023/09/05 10:42:16;;;;;;;2.97;1.43;;;24.00;49.30;;;;;;5036438;28;20200;-83
2023/09/05 10:44:50;;;;;;;1.87;1.20;;;24.10;9.80;;;;;;5038256;28;20169;-84
2023/09/05 10:47:31;;;;;;;1.93;1.20;;;24.10;1.00;;;;;;5036621;28;20235;-84
2023/09/05 10:50:04;;;;;;;3.83;1.37;;;24.20;1.00;;;;;;5036643;28;20203;-84
2023/09/05 10:52:30;;;;;;;1.20;1.10;;;24.30;1.00;;;;;;5037287;28;20295;-84
2023/09/05 10:54:56;;;;;;;4.67;1.30;;;24.20;1.00;;;;;;5037019;28;20264;-84
2023/09/05 10:57:42;;;;;;;2.00;1.47;;;24.50;1.00;;;;;;5036661;28;20179;-83
2023/09/05 11:00:17;;;;;;;1.42;1.30;;;24.40;1.00;;;;;;5037322;28;20271;-83
2023/09/05 11:02:44;;;;;;;2.00;1.40;;;24.60;1.00;;;;;;5036810;28;20198;-83
2023/09/05 11:05:13;;;;;;;3.58;1.42;;;24.80;1.00;;;;;;5038266;28;20217;-84
2023/09/05 11:07:43;;;;;;;4.38;1.30;;;24.70;1.00;;;;;;5036351;28;20199;-84
2023/09/05 11:10:37;;;;;;;2.80;1.20;;;24.80;1.00;;;;;;5036800;28;20203;-84
2023/09/05 11:13:11;;;;;;;2.90;1.10;;;24.90;1.00;;;;;;5036927;28;20188;-83
2023/09/05 11:15:43;;;;;;;3.95;1.30;;;25.00;1.00;;;;;;5038461;28;20151;-84
2023/09/05 11:18:14;;;;;;;2.28;1.10;;;25.10;1.00;;;;;;5037262;28;20184;-84
2023/09/05 11:20:45;;;;;;;1.98;1.23;;;25.10;1.00;;;;;;5037377;28;20223;-84
2023/09/05 11:23:17;;;;;;;1.55;1.35;;;25.20;1.00;;;;;;5038159;28;20196;-85
2023/09/05 11:25:54;;;;;;;2.58;1.13;;;25.20;1.00;;;;;;5037810;28;20263;-84
2023/09/05 11:28:24;;;;;;;1.40;1.20;;;25.30;1.00;;;;;;5042899;28;20160;-84
2023/09/05 11:30:57;;;;;;;0.98;0.88;;;25.40;1.00;;;;;;5048234;28;20230;-85
2023/09/05 11:33:25;;;;;;;1.45;1.15;;;25.40;1.00;;;;;;5037946;28;20184;-84
2023/09/05 11:35:51;;;;;;;3.03;1.52;;;25.50;1.00;;;;;;5035737;28;20188;-84
2023/09/05 11:38:20;;;;;;;2.38;1.00;;;25.50;1.00;;;;;;5035067;28;20183;-84
2023/09/05 11:40:53;;;;;;;2.22;1.25;;;25.50;1.00;;;;;;5035002;28;20591;-83
2023/09/05 11:43:19;;;;;;;2.90;1.20;;;25.70;1.00;;;;;;5035326;28;20621;-83
2023/09/05 11:45:47;;;;;;;2.95;1.00;;;25.90;1.00;;;;;;5035402;28;20269;-82
2023/09/05 11:48:16;;;;;;;1.95;1.25;;;25.80;1.00;;;;;;5035298;28;20250;-82
2023/09/05 11:50:44;;;;;;;3.58;1.25;;;25.80;1.00;;;;;;5035320;28;20200;-83
2023/09/05 11:53:13;;;;;;;3.63;1.10;;;26.10;1.00;;;;;;5033746;28;20634;-82
2023/09/05 11:55:40;;;;;;;3.38;1.02;;;25.90;1.00;;;;;;5037319;28;20168;-82
2023/09/05 11:58:06;;;;;;;5.05;1.00;;;25.90;1.00;;;;;;5033946;28;20711;-82
2023/09/05 12:00:36;;;;;;;1.88;0.95;;;26.00;1.00;;;;;;5035112;28;20176;-82
2023/09/05 12:03:02;;;;;;;4.15;1.00;;;26.00;1.00;;;;;;5033370;28;20196;-82
2023/09/05 12:05:32;;;;;;;1.63;1.20;;;26.10;1.00;;;;;;5033830;28;20187;-82
2023/09/05 12:07:57;;;;;;;1.50;1.00;;;26.10;1.00;;;;;;5040498;28;20231;-82
2023/09/05 12:10:27;;;;;;;2.35;1.00;;;26.10;1.00;;;;;;5035722;28;20247;-82
2023/09/05 12:12:58;;;;;;;3.80;1.00;;;26.20;1.00;;;;;;5034154;28;20199;-82
2023/09/05 12:15:35;;;;;;;1.52;1.10;;;26.30;1.00;;;;;;5033464;28;20659;-82
2023/09/05 12:18:04;;;;;;;3.40;1.25;;;26.40;1.00;;;;;;5036977;28;20208;-81
2023/09/05 12:20:30;;;;;;;1.50;1.00;;;26.40;1.00;;;;;;5032826;28;20176;-82
2023/09/05 12:22:56;;;;;;;1.13;0.93;;;26.50;1.00;;;;;;5034457;28;20188;-82
2023/09/05 12:25:24;;;;;;;2.95;1.00;;;26.50;1.00;;;;;;5033579;28;20184;-82
2023/09/05 12:27:51;;;;;;;1.35;0.88;;;26.70;1.00;;;;;;5050414;28;20187;-82
2023/09/05 12:30:30;;;;;;;4.82;1.23;;;26.70;1.00;;;;;;5047497;28;20644;-82
2023/09/05 12:33:01;;;;;;;4.22;1.30;;;26.70;1.00;;;;;;5034294;28;20275;-82
2023/09/05 12:35:28;;;;;;;2.03;0.95;;;26.80;1.00;;;;;;5034180;28;20184;-82
2023/09/05 12:37:55;;;;;;;2.63;1.30;;;26.80;1.00;;;;;;5032863;28;20178;-82
2023/09/05 12:40:22;;;;;;;0.93;0.82;;;26.80;1.00;;;;;;5033153;28;20237;-83
2023/09/05 12:42:49;;;;;;;2.42;0.90;;;26.90;99.90;;;;;;5033540;28;20208;-82
2023/09/05 12:45:16;;;;;;;1.10;0.80;;;27.00;1.00;;;;;;5033567;28;20672;-82
2023/09/05 12:47:41;;;;;;;1.65;0.80;;;27.00;1.00;;;;;;5036513;28;20620;-83
2023/09/05 12:50:15;;;;;;;2.58;1.00;;;27.10;1.00;;;;;;5038651;28;20223;-82